Detalii statie TRANSAVIA REDIU [0000197C]

Toti senzorii

Date Temperatura solului [C]Precipitatii [mm]Voltaj baterie [mV]Leaf Wetness [Min]HC Air temperature [C]HC Relative humidity [%]Punctul de roua [C]
medieminmaxsumaultimatimpmedieminmaxmediemediemin
2019-08-15 20:00:00 0 6620 15 14.85 15.33 0 0 0
2019-08-15 21:00:00 0 6620 14.58 14.22 14.85 0 0 0
2019-08-15 22:00:00 0 6610 14.26 14.2 14.31 0 0 0
2019-08-15 23:00:00 0 6600 14.06 13.99 14.16 0 0 0
2019-08-16 00:00:00 0 6590 13.94 13.89 14.03 0 0 0
2019-08-16 01:00:00 0 6590 13.81 13.58 13.95 0 0 0
2019-08-16 02:00:00 0 6590 13.38 13.11 13.63 0 0 0
2019-08-16 03:00:00 0 6582 13.18 13.04 13.34 0 0 0
2019-08-16 04:00:00 0 6582 13.08 13.04 13.17 0 0 0
2019-08-16 05:00:00 0 6582 13.12 13.02 13.23 0 0 0
2019-08-16 06:00:00 0 6582 13.23 13.09 13.38 0 0 0
2019-08-16 07:00:00 0 6600 13.56 13.42 13.77 0 0 0
2019-08-16 08:00:00 0 6630 15.01 13.75 15.65 0 0 0
2019-08-16 09:00:00 0 6668 15.85 15.42 16.48 0 0 0
2019-08-16 10:00:00 0 6668 18.13 17.39 18.86 0 0 0
2019-08-16 11:00:00 0 6708 19.2 18.5 20.12 0 0 0
2019-08-16 12:00:00 0 6776 19.61 18.5 20.38 0 0 0
2019-08-16 13:00:00 0 6776 20.17 19.56 20.9 0 0 0
2019-08-16 14:00:00 0 6834 20.73 19.65 22.19 0 0 0
2019-08-16 15:00:00 0 6864 21.03 20.39 21.62 0 0 0
2019-08-16 16:00:00 0 6864 20.77 19.96 21.54 0 0 0
2019-08-16 17:00:00 0 6864 21.2 20.84 21.53 0 0 0
2019-08-16 18:00:00 0 6844 20.63 20.09 21.29 0 0 0
2019-08-16 19:00:00 0 6756 18.55 16.54 19.9 0 0 0
2019-08-16 20:00:00 0 6708 14.58 14 16.06 0 0 0
2019-08-16 21:00:00 0 6708 13.42 13.06 13.82 0 0 0
2019-08-16 22:00:00 0 6688 12.32 11.43 12.96 0 0 0
2019-08-16 23:00:00 0 6688 11.05 10.88 11.37 0 0 0
2019-08-17 00:00:00 0 6678 11.37 11.07 11.79 0 0 0
2019-08-17 01:00:00 0 6678 10.87 10.09 11.32 0 0 0
2019-08-17 02:00:00 0 6668 9.28 8.95 9.99 0 0 0
2019-08-17 03:00:00 0 6678 9.36 8.96 9.67 16.66 1.6 0
2019-08-17 04:00:00 0 6668 8.35 7.66 9.14 0 0 0
2019-08-17 05:00:00 0 6660 7.42 7.09 7.74 0 0 0
2019-08-17 06:00:00 0 6668 7.12 6.84 7.56 0 0 0
2019-08-17 07:00:00 0 6688 10.14 7.97 13.08 25 0
2019-08-17 08:00:00 0 6698 14.72 13.22 16.58 25 0
2019-08-17 09:00:00 0 6708 18.56 16.12 20.32 0 0 0
2019-08-17 10:00:00 0 6718 19.07 18.31 20 0 0 0
2019-08-17 11:00:00 0 6748 20.54 19.18 21.7 0 0 0
2019-08-17 12:00:00 0 6844 21.48 20.57 22.08 0 0 0
2019-08-17 13:00:00 0 6826 21.97 20.92 23 0 0 0
2019-08-17 14:00:00 0 6914 21.76 21.09 22.65 0 0 0
2019-08-17 15:00:00 0 6894 22.52 21.87 23.43 0 0 0
2019-08-17 16:00:00 0 6962 22.16 21.69 22.71 0 0 0
2019-08-17 17:00:00 0 6894 21.91 20.53 22.81 0 0 0
2019-08-17 18:00:00 0 6854 21.68 20.91 22.1 0 0 0
2019-08-17 19:00:00 0 6806 18.97 17.5 20.31 0 0 0